Time;durP1;ratioP1;P1;durP2;ratioP2;P2;SDS_P1;SDS_P2;PMS_P1;PMS_P2;Temp;Humidity;BMP_temperature;BMP_pressure;BME280_temperature;BME280_humidity;BME280_pressure;Samples;Min_cycle;Max_cycle;Signal;HPM_P1;HPM_P2
2023/05/10 00:02:14;;;;;;;26.83;17.88;;;;;;;;;;5038113;28;20040;-78
2023/05/10 00:04:40;;;;;;;28.02;18.65;;;;;;;;;;5052185;28;20032;-78
2023/05/10 00:07:06;;;;;;;24.88;16.88;;;;;;;;;;5035844;28;20157;-79
2023/05/10 00:09:33;;;;;;;27.10;18.02;;;;;;;;;;5052591;28;20110;-79
2023/05/10 00:11:59;;;;;;;25.35;17.25;;;;;;;;;;5051052;28;20050;-79
2023/05/10 00:14:25;;;;;;;24.85;16.88;;;;;;;;;;5068717;28;20047;-80
2023/05/10 00:16:51;;;;;;;27.45;18.92;;;;;;;;;;5051014;28;20246;-80
2023/05/10 00:19:17;;;;;;;27.90;18.67;;;;;;;;;;5068548;28;20044;-80
2023/05/10 00:21:43;;;;;;;29.55;18.90;;;;;;;;;;5049125;28;20171;-80
2023/05/10 00:24:09;;;;;;;24.67;17.35;;;;;;;;;;5048833;28;21036;-80
2023/05/10 00:26:36;;;;;;;24.20;17.10;;;;;;;;;;5050770;28;20048;-80
2023/05/10 00:29:02;;;;;;;22.83;16.60;;;;;;;;;;5050289;28;20060;-80
2023/05/10 00:31:28;;;;;;;17.25;14.15;;;;;;;;;;5049279;28;20486;-79
2023/05/10 00:33:54;;;;;;;16.10;14.40;;;;;;;;;;5031704;28;20052;-79
2023/05/10 00:36:21;;;;;;;16.58;14.65;;;;;;;;;;5048837;28;20379;-81
2023/05/10 00:38:47;;;;;;;19.20;16.23;;;;;;;;;;5047675;28;20582;-80
2023/05/10 00:41:13;;;;;;;18.48;16.58;;;;;;;;;;5045484;28;20043;-80
2023/05/10 00:44:12;;;;;;;;;;;;;;;;;;;;;
2023/05/10 00:46:42;;;;;;;18.35;16.38;;;;;;;;;;5051388;28;20124;-81
2023/05/10 00:49:08;;;;;;;17.40;15.50;;;;;;;;;;5052853;28;20099;-80
2023/05/10 00:51:35;;;;;;;17.45;15.45;;;;;;;;;;5051527;28;20047;-81
2023/05/10 00:54:01;;;;;;;17.52;15.40;;;;;;;;;;5055166;28;20475;-80
2023/05/10 00:56:29;;;;;;;18.48;16.58;;;;;;;;;;5054618;28;20134;-79
2023/05/10 00:58:55;;;;;;;17.17;15.27;;;;;;;;;;5053094;28;20048;-79
2023/05/10 01:01:21;;;;;;;17.98;16.13;;;;;;;;;;5053802;28;20512;-79
2023/05/10 01:03:47;;;;;;;17.67;15.82;;;;;;;;;;5052173;28;20572;-79
2023/05/10 01:06:13;;;;;;;17.85;15.45;;;;;;;;;;5036187;28;20044;-79
2023/05/10 01:08:40;;;;;;;16.85;14.57;;;;;;;;;;5052519;28;20048;-80
2023/05/10 01:11:06;;;;;;;17.52;15.63;;;;;;;;;;5053290;28;20410;-79
2023/05/10 01:13:37;;;;;;;17.15;14.52;;;;;;;;;;5050901;28;21073;-79
2023/05/10 01:16:04;;;;;;;17.17;15.32;;;;;;;;;;5049753;28;20044;-79
2023/05/10 01:18:31;;;;;;;16.92;14.20;;;;;;;;;;5048725;28;20047;-79
2023/05/10 01:21:19;;;;;;;18.55;14.98;;;;;;;;;;5051161;28;20052;-80
2023/05/10 01:24:04;;;;;;;17.13;13.32;;;;;;;;;;5050245;28;20884;-79
2023/05/10 01:26:37;;;;;;;16.05;13.52;;;;;;;;;;5049825;28;20429;-79
2023/05/10 01:29:16;;;;;;;15.85;13.25;;;;;;;;;;5048762;28;20067;-79
2023/05/10 01:32:01;;;;;;;16.42;13.90;;;;;;;;;;5054680;28;20414;-79
2023/05/10 01:34:41;;;;;;;15.10;12.68;;;;;;;;;;5053806;28;20043;-79
2023/05/10 01:37:19;;;;;;;15.88;13.18;;;;;;;;;;5059443;28;20085;-78
2023/05/10 01:39:47;;;;;;;15.18;12.65;;;;;;;;;;5055494;28;20078;-78
2023/05/10 01:42:25;;;;;;;13.35;11.73;;;;;;;;;;5051338;28;20051;-79
2023/05/10 01:44:59;;;;;;;17.88;12.57;;;;;;;;;;5053172;28;20324;-79
2023/05/10 01:47:37;;;;;;;12.13;10.85;;;;;;;;;;5056254;28;20285;-79
2023/05/10 01:50:05;;;;;;;17.10;11.80;;;;;;;;;;5053078;28;20083;-79
2023/05/10 01:52:33;;;;;;;13.25;11.52;;;;;;;;;;5049257;28;20039;-79
2023/05/10 01:55:02;;;;;;;14.63;11.27;;;;;;;;;;5052254;28;20051;-79
2023/05/10 01:57:32;;;;;;;13.35;11.93;;;;;;;;;;5052005;28;20571;-79
2023/05/10 02:00:00;;;;;;;15.98;11.82;;;;;;;;;;5051982;28;20049;-79
2023/05/10 02:02:28;;;;;;;12.75;11.38;;;;;;;;;;5052393;28;20054;-78
2023/05/10 02:04:55;;;;;;;17.73;12.43;;;;;;;;;;5054435;28;20055;-79
2023/05/10 02:07:22;;;;;;;13.93;11.93;;;;;;;;;;5053097;28;20069;-79
2023/05/10 02:09:48;;;;;;;13.30;11.40;;;;;;;;;;5053057;28;20067;-79
2023/05/10 02:12:15;;;;;;;13.35;11.85;;;;;;;;;;5035059;28;20086;-79
2023/05/10 02:14:42;;;;;;;15.70;12.40;;;;;;;;;;5040259;28;20177;-80
2023/05/10 02:17:09;;;;;;;13.43;11.90;;;;;;;;;;5055967;28;22196;-80
2023/05/10 02:19:36;;;;;;;16.10;11.77;;;;;;;;;;5052768;28;20042;-79
2023/05/10 02:22:03;;;;;;;14.57;12.65;;;;;;;;;;5056496;28;20043;-79
2023/05/10 02:24:30;;;;;;;14.52;12.60;;;;;;;;;;5041065;28;20506;-79
2023/05/10 02:26:57;;;;;;;15.25;13.05;;;;;;;;;;5055844;28;20404;-77
2023/05/10 02:29:25;;;;;;;16.75;13.20;;;;;;;;;;5053281;28;20129;-79
2023/05/10 02:31:55;;;;;;;16.60;13.10;;;;;;;;;;5056453;28;20518;-79
2023/05/10 02:34:26;;;;;;;16.00;11.85;;;;;;;;;;5054258;28;20140;-79
2023/05/10 02:36:52;;;;;;;13.70;11.35;;;;;;;;;;5054029;28;20484;-79
2023/05/10 02:39:19;;;;;;;15.85;12.18;;;;;;;;;;5040271;28;20531;-79
2023/05/10 02:41:46;;;;;;;15.00;12.50;;;;;;;;;;5055103;28;20036;-80
2023/05/10 02:44:14;;;;;;;14.13;11.73;;;;;;;;;;5039103;28;20059;-79
2023/05/10 02:46:41;;;;;;;13.88;11.68;;;;;;;;;;5053209;28;20048;-80
2023/05/10 02:49:07;;;;;;;13.82;11.77;;;;;;;;;;5054862;28;20059;-79
2023/05/10 02:51:35;;;;;;;14.57;12.35;;;;;;;;;;5055058;28;20090;-79
2023/05/10 02:54:04;;;;;;;16.80;12.40;;;;;;;;;;5054280;28;20079;-80
2023/05/10 02:56:33;;;;;;;15.63;12.63;;;;;;;;;;5052380;28;20071;-80
2023/05/10 02:58:59;;;;;;;16.50;13.30;;;;;;;;;;5052358;28;20052;-79
2023/05/10 03:01:25;;;;;;;17.75;13.80;;;;;;;;;;5054302;28;20040;-79
2023/05/10 03:03:51;;;;;;;18.85;14.48;;;;;;;;;;5055218;28;20056;-78
2023/05/10 03:06:17;;;;;;;19.40;14.55;;;;;;;;;;5051400;28;20491;-79
2023/05/10 03:08:44;;;;;;;19.40;14.48;;;;;;;;;;5052963;28;20049;-79
2023/05/10 03:11:45;;;;;;;21.00;15.50;;;;;;;;;;5036454;28;20158;-79
2023/05/10 03:14:31;;;;;;;23.17;15.45;;;;;;;;;;5014433;28;20048;-80
2023/05/10 03:17:01;;;;;;;20.45;15.13;;;;;;;;;;5055577;28;20131;-78
2023/05/10 03:19:30;;;;;;;17.95;14.55;;;;;;;;;;5053551;28;20048;-79
2023/05/10 03:22:00;;;;;;;20.27;15.05;;;;;;;;;;5051222;28;20040;-78
2023/05/10 03:24:28;;;;;;;20.73;14.55;;;;;;;;;;5052407;28;20093;-79
2023/05/10 03:26:56;;;;;;;17.33;13.38;;;;;;;;;;5052338;28;20052;-80
2023/05/10 03:29:23;;;;;;;20.83;14.85;;;;;;;;;;5052799;28;20048;-80
2023/05/10 03:31:50;;;;;;;18.60;14.50;;;;;;;;;;5038011;28;20095;-79
2023/05/10 03:34:17;;;;;;;16.85;13.45;;;;;;;;;;5052829;28;20048;-80
2023/05/10 03:36:43;;;;;;;17.13;13.35;;;;;;;;;;5040253;28;20379;-79
2023/05/10 03:39:10;;;;;;;17.08;14.23;;;;;;;;;;5032790;28;20083;-79
2023/05/10 03:41:36;;;;;;;16.15;13.60;;;;;;;;;;5052158;28;20438;-80
2023/05/10 03:44:02;;;;;;;19.23;14.27;;;;;;;;;;5033255;28;20040;-80
2023/05/10 03:46:28;;;;;;;17.38;15.05;;;;;;;;;;5034976;28;21183;-80
2023/05/10 03:48:54;;;;;;;16.15;13.50;;;;;;;;;;5051025;28;20244;-80
2023/05/10 03:51:20;;;;;;;19.83;14.68;;;;;;;;;;5050682;28;20051;-79
2023/05/10 03:53:46;;;;;;;17.20;14.13;;;;;;;;;;5049073;28;20040;-80
2023/05/10 03:56:12;;;;;;;18.13;14.48;;;;;;;;;;5047866;28;20044;-80
2023/05/10 03:58:38;;;;;;;16.70;14.55;;;;;;;;;;5030345;28;20040;-80
2023/05/10 04:01:04;;;;;;;16.92;13.77;;;;;;;;;;5051482;28;20492;-80
2023/05/10 04:03:31;;;;;;;19.63;14.55;;;;;;;;;;5049823;28;20097;-79
2023/05/10 04:06:01;;;;;;;20.67;15.63;;;;;;;;;;5053529;28;20093;-80
2023/05/10 04:08:27;;;;;;;21.50;15.68;;;;;;;;;;5046754;28;20397;-80
2023/05/10 04:10:53;;;;;;;24.73;17.00;;;;;;;;;;5056554;28;20105;-80
2023/05/10 04:13:20;;;;;;;19.42;15.43;;;;;;;;;;5040296;28;20491;-80
2023/05/10 04:15:46;;;;;;;21.95;16.17;;;;;;;;;;5053815;28;20055;-80
2023/05/10 04:18:12;;;;;;;23.15;16.90;;;;;;;;;;5057318;28;20056;-81
2023/05/10 04:20:38;;;;;;;24.48;16.33;;;;;;;;;;5054827;28;20091;-81
2023/05/10 04:23:04;;;;;;;30.52;18.42;;;;;;;;;;5051625;28;20043;-80
2023/05/10 04:25:30;;;;;;;26.35;17.10;;;;;;;;;;5051641;28;20093;-80
2023/05/10 04:27:57;;;;;;;26.73;17.40;;;;;;;;;;5040068;28;20139;-80
2023/05/10 04:30:24;;;;;;;27.30;17.60;;;;;;;;;;5058934;28;20209;-79
2023/05/10 04:32:50;;;;;;;27.42;17.42;;;;;;;;;;5057493;28;20051;-80
2023/05/10 04:35:16;;;;;;;27.10;17.85;;;;;;;;;;5072031;28;20056;-79
2023/05/10 04:37:43;;;;;;;27.77;18.15;;;;;;;;;;5055680;28;20040;-81
2023/05/10 04:40:09;;;;;;;31.05;17.98;;;;;;;;;;5054035;28;20147;-80
2023/05/10 04:42:35;;;;;;;28.73;17.40;;;;;;;;;;5033494;28;20040;-81
2023/05/10 04:45:01;;;;;;;26.77;17.65;;;;;;;;;;5054514;28;20131;-79
2023/05/10 04:47:27;;;;;;;27.35;17.80;;;;;;;;;;5056337;28;20040;-78
2023/05/10 04:49:53;;;;;;;26.60;17.85;;;;;;;;;;5057578;28;20506;-79
2023/05/10 04:52:20;;;;;;;30.02;18.55;;;;;;;;;;5054887;28;20055;-80
2023/05/10 04:54:46;;;;;;;29.02;18.13;;;;;;;;;;5057049;28;20135;-80
2023/05/10 04:57:12;;;;;;;30.15;17.55;;;;;;;;;;5055444;28;20765;-80
2023/05/10 04:59:38;;;;;;;27.90;16.80;;;;;;;;;;5056534;28;20036;-79
2023/05/10 05:02:05;;;;;;;30.63;15.32;;;;;;;;;;5046465;28;20077;-79
2023/05/10 05:04:31;;;;;;;24.77;15.50;;;;;;;;;;5041227;28;20063;-80
2023/05/10 05:06:57;;;;;;;29.75;14.93;;;;;;;;;;5061112;28;20040;-80
2023/05/10 05:09:23;;;;;;;23.27;14.73;;;;;;;;;;5058367;28;21119;-80
2023/05/10 05:11:49;;;;;;;24.98;14.07;;;;;;;;;;5059976;28;20036;-80
2023/05/10 05:14:15;;;;;;;25.92;14.65;;;;;;;;;;5062238;28;20536;-80
2023/05/10 05:16:41;;;;;;;22.63;15.35;;;;;;;;;;5060497;28;20044;-80
2023/05/10 05:19:08;;;;;;;23.00;15.20;;;;;;;;;;5060372;28;20487;-81
2023/05/10 05:21:36;;;;;;;22.83;14.45;;;;;;;;;;5043492;28;20063;-79
2023/05/10 05:24:02;;;;;;;19.30;13.40;;;;;;;;;;5075671;28;20078;-79
2023/05/10 05:26:29;;;;;;;19.27;13.95;;;;;;;;;;5041725;28;20058;-79
2023/05/10 05:28:55;;;;;;;17.70;12.32;;;;;;;;;;5061840;28;20067;-78
2023/05/10 05:31:27;;;;;;;17.25;12.43;;;;;;;;;;5061481;28;20074;-79
2023/05/10 05:33:53;;;;;;;18.27;12.45;;;;;;;;;;5063864;28;20065;-79
2023/05/10 05:36:19;;;;;;;17.35;12.98;;;;;;;;;;5063156;28;20464;-78
2023/05/10 05:38:45;;;;;;;17.33;11.98;;;;;;;;;;5061677;28;20048;-80
2023/05/10 05:41:11;;;;;;;15.05;12.13;;;;;;;;;;5062242;28;20138;-80
2023/05/10 05:43:38;;;;;;;17.17;10.77;;;;;;;;;;5063315;28;20061;-80
2023/05/10 05:46:04;;;;;;;15.88;11.50;;;;;;;;;;5079277;28;20101;-79
2023/05/10 05:48:30;;;;;;;13.60;10.63;;;;;;;;;;5079719;28;20512;-79
2023/05/10 05:50:56;;;;;;;14.73;9.50;;;;;;;;;;5061500;28;20075;-79
2023/05/10 05:53:23;;;;;;;14.90;11.13;;;;;;;;;;5063219;28;20076;-79
2023/05/10 05:55:55;;;;;;;11.38;10.18;;;;;;;;;;5061810;28;20051;-79
2023/05/10 05:58:25;;;;;;;13.40;10.75;;;;;;;;;;5065056;28;20040;-81
2023/05/10 06:00:51;;;;;;;11.88;9.88;;;;;;;;;;5062959;28;20101;-78
2023/05/10 06:03:18;;;;;;;11.40;9.85;;;;;;;;;;5063756;28;20659;-79
2023/05/10 06:05:44;;;;;;;12.63;10.70;;;;;;;;;;5069658;28;20132;-79
2023/05/10 06:08:10;;;;;;;11.25;9.52;;;;;;;;;;5062926;28;20059;-79
2023/05/10 06:10:36;;;;;;;14.10;10.40;;;;;;;;;;5062274;28;20040;-79
2023/05/10 06:13:03;;;;;;;12.13;9.90;;;;;;;;;;5076158;28;20080;-79
2023/05/10 06:15:29;;;;;;;12.25;10.38;;;;;;;;;;5059407;28;20460;-79
2023/05/10 06:17:55;;;;;;;10.00;8.82;;;;;;;;;;5060233;28;20131;-79
2023/05/10 06:20:21;;;;;;;7.38;6.60;;;;;;;;;;5063904;28;20560;-79
2023/05/10 06:22:47;;;;;;;7.18;6.47;;;;;;;;;;5069330;28;20145;-80
2023/05/10 06:25:14;;;;;;;7.07;6.38;;;;;;;;;;5090805;28;20063;-80
2023/05/10 06:27:40;;;;;;;5.82;5.22;;;;;;;;;;5074391;28;20041;-79
2023/05/10 06:30:08;;;;;;;4.22;3.25;;;;;;;;;;5066075;28;20059;-80
2023/05/10 06:32:34;;;;;;;2.42;2.22;;;;;;;;;;5086408;28;20056;-80
2023/05/10 06:35:00;;;;;;;2.08;1.85;;;;;;;;;;5075482;28;20048;-79
2023/05/10 06:37:26;;;;;;;3.22;2.00;;;;;;;;;;5077640;28;20055;-80
2023/05/10 06:39:52;;;;;;;1.95;1.85;;;;;;;;;;5049371;28;20051;-79
2023/05/10 06:42:18;;;;;;;1.75;1.65;;;;;;;;;;5043941;28;20081;-80
2023/05/10 06:44:44;;;;;;;1.60;1.50;;;;;;;;;;5062832;28;20044;-80
2023/05/10 06:47:10;;;;;;;1.52;1.42;;;;;;;;;;5066332;28;20044;-79
2023/05/10 06:49:37;;;;;;;1.70;1.60;;;;;;;;;;5079286;27;20098;-79
2023/05/10 06:52:03;;;;;;;1.60;1.50;;;;;;;;;;5062570;28;20048;-80
2023/05/10 06:54:30;;;;;;;1.75;1.65;;;;;;;;;;5062343;28;20609;-80
2023/05/10 06:56:56;;;;;;;2.38;2.17;;;;;;;;;;5061522;28;20116;-80
2023/05/10 06:59:22;;;;;;;2.70;2.50;;;;;;;;;;5060332;28;20047;-81
2023/05/10 07:01:48;;;;;;;3.63;3.30;;;;;;;;;;5051932;28;20147;-80
2023/05/10 07:04:14;;;;;;;4.47;4.07;;;;;;;;;;5062425;28;20036;-81
2023/05/10 07:06:40;;;;;;;6.95;4.18;;;;;;;;;;5078667;28;20347;-80
2023/05/10 07:09:07;;;;;;;6.63;4.07;;;;;;;;;;5077634;28;20039;-81
2023/05/10 07:11:33;;;;;;;9.15;5.00;;;;;;;;;;5042245;28;20051;-80
2023/05/10 07:13:59;;;;;;;17.13;9.07;;;;;;;;;;5060244;28;20040;-80
2023/05/10 07:16:26;;;;;;;17.02;8.35;;;;;;;;;;5061457;28;20044;-81
2023/05/10 07:18:53;;;;;;;14.75;6.38;;;;;;;;;;5059490;28;20044;-81
2023/05/10 07:21:19;;;;;;;15.93;6.60;;;;;;;;;;5062666;28;20052;-81
2023/05/10 07:23:45;;;;;;;12.30;7.20;;;;;;;;;;5059479;28;20142;-80
2023/05/10 07:26:11;;;;;;;11.60;7.75;;;;;;;;;;5043628;28;20484;-80
2023/05/10 07:28:38;;;;;;;9.68;7.70;;;;;;;;;;5044641;28;20142;-80
2023/05/10 07:31:05;;;;;;;11.75;7.72;;;;;;;;;;5061046;28;20044;-79
2023/05/10 07:33:31;;;;;;;18.77;9.40;;;;;;;;;;5044918;28;20043;-79
2023/05/10 07:35:57;;;;;;;12.27;8.38;;;;;;;;;;5027178;28;20044;-80
2023/05/10 07:38:23;;;;;;;15.70;9.52;;;;;;;;;;5059072;28;21646;-80
2023/05/10 07:40:49;;;;;;;16.02;9.70;;;;;;;;;;5044433;28;20411;-80
2023/05/10 07:43:15;;;;;;;14.50;10.30;;;;;;;;;;5044602;28;20445;-78
2023/05/10 07:45:41;;;;;;;14.82;12.60;;;;;;;;;;5042333;28;20080;-79
2023/05/10 07:48:07;;;;;;;13.77;12.27;;;;;;;;;;5060654;28;20036;-80
2023/05/10 07:50:33;;;;;;;17.30;13.73;;;;;;;;;;5043763;28;20462;-80
2023/05/10 07:53:00;;;;;;;20.63;15.52;;;;;;;;;;5059720;28;20493;-79
2023/05/10 07:55:26;;;;;;;25.63;18.80;;;;;;;;;;5060342;28;20042;-79
2023/05/10 07:57:52;;;;;;;22.88;20.42;;;;;;;;;;5059464;28;20546;-80
2023/05/10 08:00:19;;;;;;;25.88;22.17;;;;;;;;;;5076557;28;20569;-80
2023/05/10 08:02:45;;;;;;;25.20;20.20;;;;;;;;;;5050027;28;20802;-79
2023/05/10 08:05:11;;;;;;;20.55;18.35;;;;;;;;;;5060465;28;21138;-79
2023/05/10 08:07:37;;;;;;;23.83;19.65;;;;;;;;;;5050870;28;20568;-79
2023/05/10 08:10:06;;;;;;;20.55;18.23;;;;;;;;;;5060920;28;20055;-79
2023/05/10 08:12:32;;;;;;;19.38;17.27;;;;;;;;;;5063913;28;20475;-80
2023/05/10 08:14:58;;;;;;;20.33;18.25;;;;;;;;;;5060479;28;20082;-80
2023/05/10 08:17:25;;;;;;;17.67;15.98;;;;;;;;;;5077553;28;20484;-79
2023/05/10 08:19:53;;;;;;;17.73;16.10;;;;;;;;;;5060919;28;20048;-80
2023/05/10 08:22:19;;;;;;;17.67;15.98;;;;;;;;;;5050903;28;20060;-80
2023/05/10 08:24:45;;;;;;;16.98;15.27;;;;;;;;;;5051021;28;21667;-80
2023/05/10 08:27:11;;;;;;;15.20;13.70;;;;;;;;;;5042688;28;20067;-78
2023/05/10 08:29:38;;;;;;;13.43;12.23;;;;;;;;;;5060791;28;20056;-78
2023/05/10 08:32:04;;;;;;;13.25;12.05;;;;;;;;;;5060956;28;20044;-79
2023/05/10 08:34:31;;;;;;;13.90;12.55;;;;;;;;;;5058163;28;20078;-77
2023/05/10 08:36:57;;;;;;;14.35;12.85;;;;;;;;;;5039893;28;20694;-79
2023/05/10 08:39:23;;;;;;;13.40;12.10;;;;;;;;;;5044627;28;20440;-77
2023/05/10 08:41:51;;;;;;;12.07;9.57;;;;;;;;;;5059770;28;20032;-77
2023/05/10 08:44:18;;;;;;;9.98;8.85;;;;;;;;;;5060164;28;20044;-78
2023/05/10 08:46:46;;;;;;;9.95;8.95;;;;;;;;;;5048584;28;21824;-77
2023/05/10 08:49:18;;;;;;;9.60;8.60;;;;;;;;;;5043383;28;20036;-77
2023/05/10 08:51:47;;;;;;;9.40;8.25;;;;;;;;;;5057758;28;20125;-78
2023/05/10 08:54:14;;;;;;;8.48;7.55;;;;;;;;;;5061759;28;20056;-77
2023/05/10 08:56:40;;;;;;;9.73;8.77;;;;;;;;;;5062927;28;20036;-77
2023/05/10 08:59:06;;;;;;;10.98;8.85;;;;;;;;;;5043280;28;20512;-79
2023/05/10 09:01:33;;;;;;;10.45;9.45;;;;;;;;;;5057392;28;20056;-78
2023/05/10 09:03:59;;;;;;;9.70;8.88;;;;;;;;;;5059749;28;20040;-78
2023/05/10 09:06:26;;;;;;;10.20;8.70;;;;;;;;;;5062394;28;21606;-77
2023/05/10 09:08:52;;;;;;;10.77;8.90;;;;;;;;;;5078942;28;20488;-78
2023/05/10 09:11:20;;;;;;;7.93;7.15;;;;;;;;;;5062265;28;20044;-78
2023/05/10 09:13:46;;;;;;;8.68;7.18;;;;;;;;;;5047603;28;20539;-78
2023/05/10 09:16:12;;;;;;;7.25;6.55;;;;;;;;;;5062055;28;20096;-77
2023/05/10 09:18:41;;;;;;;5.85;5.40;;;;;;;;;;5052853;28;20396;-76
2023/05/10 09:21:08;;;;;;;4.55;4.18;;;;;;;;;;5063466;28;20048;-77
2023/05/10 09:23:34;;;;;;;4.40;3.95;;;;;;;;;;5063958;28;20044;-77
2023/05/10 09:26:06;;;;;;;4.40;4.00;;;;;;;;;;5062195;28;20484;-78
2023/05/10 09:28:50;;;;;;;5.93;3.85;;;;;;;;;;5061370;28;20053;-79
2023/05/10 09:31:17;;;;;;;5.30;4.13;;;;;;;;;;5061309;28;20040;-78
2023/05/10 09:33:47;;;;;;;4.20;3.80;;;;;;;;;;5044509;28;20073;-78
2023/05/10 09:36:13;;;;;;;4.43;4.03;;;;;;;;;;5045770;28;20123;-78
2023/05/10 09:38:52;;;;;;;4.45;4.00;;;;;;;;;;5062107;28;20519;-78
2023/05/10 09:41:22;;;;;;;6.22;4.25;;;;;;;;;;5046091;28;20044;-78
2023/05/10 09:43:48;;;;;;;3.92;3.60;;;;;;;;;;5053192;28;20041;-78
2023/05/10 09:46:18;;;;;;;4.65;4.25;;;;;;;;;;5045498;28;20044;-77
2023/05/10 09:48:45;;;;;;;4.15;3.85;;;;;;;;;;5063588;28;20044;-78
2023/05/10 09:51:19;;;;;;;4.38;4.05;;;;;;;;;;5062676;28;20914;-78
2023/05/10 09:53:45;;;;;;;5.05;4.65;;;;;;;;;;5046341;28;20078;-77
2023/05/10 09:56:11;;;;;;;5.45;4.95;;;;;;;;;;5062896;28;20047;-78
2023/05/10 09:58:41;;;;;;;6.97;5.65;;;;;;;;;;5078494;28;20087;-77
2023/05/10 10:01:11;;;;;;;6.75;6.07;;;;;;;;;;5062705;28;20060;-77
2023/05/10 10:03:43;;;;;;;6.35;5.75;;;;;;;;;;5062969;28;20071;-77
2023/05/10 10:06:09;;;;;;;6.30;4.93;;;;;;;;;;5061595;28;20048;-77
2023/05/10 10:08:35;;;;;;;5.93;5.32;;;;;;;;;;5063743;28;20044;-76
2023/05/10 10:11:02;;;;;;;6.10;5.35;;;;;;;;;;5059987;28;20040;-76
2023/05/10 10:13:28;;;;;;;6.32;5.10;;;;;;;;;;5045133;28;21723;-76
2023/05/10 10:15:54;;;;;;;5.50;5.00;;;;;;;;;;5041081;28;20098;-77
2023/05/10 10:18:26;;;;;;;5.47;4.88;;;;;;;;;;5062536;28;20121;-76
2023/05/10 10:20:53;;;;;;;6.00;5.43;;;;;;;;;;5061621;28;20048;-77
2023/05/10 10:23:19;;;;;;;6.18;5.43;;;;;;;;;;5062127;28;20052;-77
2023/05/10 10:25:48;;;;;;;4.90;4.47;;;;;;;;;;5075063;28;20051;-76
2023/05/10 10:28:24;;;;;;;5.82;5.22;;;;;;;;;;5058378;28;20535;-77
2023/05/10 10:30:52;;;;;;;4.22;3.83;;;;;;;;;;5061304;28;20076;-77
2023/05/10 10:33:24;;;;;;;7.38;3.97;;;;;;;;;;5059465;28;20047;-77
2023/05/10 10:35:50;;;;;;;6.95;4.95;;;;;;;;;;5058152;28;20138;-77
2023/05/10 10:38:17;;;;;;;7.47;4.50;;;;;;;;;;5062533;28;20094;-77
2023/05/10 10:40:43;;;;;;;7.68;4.32;;;;;;;;;;5078866;28;20052;-77
2023/05/10 10:43:26;;;;;;;5.93;4.38;;;;;;;;;;5061722;28;20454;-77
2023/05/10 10:46:12;;;;;;;7.43;4.43;;;;;;;;;;5060441;28;20061;-75
2023/05/10 10:48:38;;;;;;;5.00;4.20;;;;;;;;;;5062998;28;20048;-76
2023/05/10 10:51:05;;;;;;;4.82;3.70;;;;;;;;;;5063509;28;20040;-76
2023/05/10 10:53:31;;;;;;;4.22;3.83;;;;;;;;;;5060413;28;20046;-76
2023/05/10 10:56:06;;;;;;;4.93;2.97;;;;;;;;;;5059973;28;20473;-76
2023/05/10 10:58:32;;;;;;;3.63;2.80;;;;;;;;;;5059698;28;20146;-77
2023/05/10 11:01:18;;;;;;;3.22;2.67;;;;;;;;;;5060731;28;20048;-77
2023/05/10 11:04:18;;;;;;;2.75;2.55;;;;;;;;;;5063056;28;20093;-77
2023/05/10 11:06:44;;;;;;;2.97;2.17;;;;;;;;;;5046231;28;20040;-77
2023/05/10 11:09:11;;;;;;;3.88;2.30;;;;;;;;;;5063975;28;20047;-77
2023/05/10 11:11:48;;;;;;;3.90;2.17;;;;;;;;;;5042729;28;20044;-77
2023/05/10 11:14:14;;;;;;;3.60;1.88;;;;;;;;;;5043933;28;20044;-77
2023/05/10 11:16:42;;;;;;;1.80;1.70;;;;;;;;;;5044370;28;20131;-78
2023/05/10 11:19:12;;;;;;;2.38;2.17;;;;;;;;;;5060467;28;20510;-77
2023/05/10 11:21:49;;;;;;;3.05;1.85;;;;;;;;;;5046233;28;20052;-77
2023/05/10 11:24:17;;;;;;;1.52;1.42;;;;;;;;;;5062869;28;20126;-76
2023/05/10 11:26:43;;;;;;;2.08;1.30;;;;;;;;;;5062326;28;20043;-76
2023/05/10 11:29:09;;;;;;;2.17;0.80;;;;;;;;;;5061185;28;20060;-76
2023/05/10 11:31:35;;;;;;;1.30;0.80;;;;;;;;;;5046313;28;20044;-77
2023/05/10 11:34:02;;;;;;;3.17;1.50;;;;;;;;;;5064401;28;20146;-77
2023/05/10 11:36:29;;;;;;;1.98;1.67;;;;;;;;;;5061729;28;20040;-78
2023/05/10 11:38:56;;;;;;;2.60;2.40;;;;;;;;;;5043507;28;20211;-76
2023/05/10 11:41:22;;;;;;;2.78;2.40;;;;;;;;;;5060892;28;20183;-77
2023/05/10 11:43:50;;;;;;;3.15;2.75;;;;;;;;;;5065635;28;20044;-76
2023/05/10 11:46:16;;;;;;;3.42;2.97;;;;;;;;;;5051939;28;20035;-76
2023/05/10 11:48:43;;;;;;;3.38;3.08;;;;;;;;;;5047039;28;20055;-78
2023/05/10 11:51:10;;;;;;;6.43;3.28;;;;;;;;;;5058968;28;20470;-77
2023/05/10 11:53:36;;;;;;;6.35;2.92;;;;;;;;;;5076756;28;20054;-77
2023/05/10 11:56:09;;;;;;;6.15;2.67;;;;;;;;;;5072200;28;20705;-78
2023/05/10 11:58:36;;;;;;;4.20;2.80;;;;;;;;;;5062987;28;20117;-77
2023/05/10 12:01:03;;;;;;;6.45;4.07;;;;;;;;;;5042162;28;20426;-77
2023/05/10 12:03:30;;;;;;;5.30;4.28;;;;;;;;;;5062667;28;20048;-75
2023/05/10 12:05:56;;;;;;;5.60;4.50;;;;;;;;;;5057902;28;20044;-76
2023/05/10 12:08:23;;;;;;;5.38;4.07;;;;;;;;;;5057133;28;20591;-77
2023/05/10 12:10:50;;;;;;;7.53;4.50;;;;;;;;;;5039016;28;20036;-77
2023/05/10 12:13:16;;;;;;;8.48;4.35;;;;;;;;;;5057468;28;20070;-76
2023/05/10 12:15:42;;;;;;;5.78;4.80;;;;;;;;;;5057173;28;20090;-76
2023/05/10 12:18:13;;;;;;;6.72;5.68;;;;;;;;;;5058123;28;20048;-77
2023/05/10 12:20:39;;;;;;;6.28;5.05;;;;;;;;;;5060421;28;21690;-76
2023/05/10 12:23:06;;;;;;;8.15;5.47;;;;;;;;;;5040233;28;20052;-76
2023/05/10 12:25:36;;;;;;;8.23;5.50;;;;;;;;;;5058165;28;20052;-77
2023/05/10 12:28:06;;;;;;;7.97;5.93;;;;;;;;;;5062325;28;20735;-76
2023/05/10 12:30:33;;;;;;;6.95;5.38;;;;;;;;;;5078990;28;20749;-76
2023/05/10 12:33:01;;;;;;;9.70;5.78;;;;;;;;;;5063080;28;20078;-77
2023/05/10 12:35:30;;;;;;;7.68;6.15;;;;;;;;;;5064134;28;20158;-77
2023/05/10 12:37:56;;;;;;;8.35;5.95;;;;;;;;;;5045820;28;20055;-75
2023/05/10 12:40:22;;;;;;;8.27;5.60;;;;;;;;;;5061393;28;20056;-76
2023/05/10 12:42:48;;;;;;;10.65;6.20;;;;;;;;;;5043147;28;20617;-76
2023/05/10 12:45:14;;;;;;;8.45;6.20;;;;;;;;;;5045967;28;20098;-77
2023/05/10 12:47:41;;;;;;;8.93;6.55;;;;;;;;;;5057181;28;20036;-77
2023/05/10 12:50:07;;;;;;;7.90;6.70;;;;;;;;;;5039115;28;20109;-77
2023/05/10 12:52:33;;;;;;;11.57;7.88;;;;;;;;;;5074960;28;20032;-77
2023/05/10 12:55:00;;;;;;;11.98;8.35;;;;;;;;;;5058544;28;20064;-76
2023/05/10 12:57:27;;;;;;;11.57;7.80;;;;;;;;;;5056916;28;21306;-76
2023/05/10 12:59:53;;;;;;;10.10;7.93;;;;;;;;;;5059649;28;20043;-76
2023/05/10 13:02:19;;;;;;;11.68;7.68;;;;;;;;;;5058673;28;20127;-76
2023/05/10 13:04:46;;;;;;;10.20;8.30;;;;;;;;;;5059149;28;20569;-76
2023/05/10 13:07:12;;;;;;;16.02;10.77;;;;;;;;;;5058255;28;20036;-76
2023/05/10 13:09:38;;;;;;;11.32;7.97;;;;;;;;;;5059977;28;20048;-76
2023/05/10 13:12:04;;;;;;;9.15;6.80;;;;;;;;;;5043351;28;20503;-77
2023/05/10 13:14:32;;;;;;;9.43;6.88;;;;;;;;;;5057758;28;20633;-77
2023/05/10 13:16:58;;;;;;;8.07;6.93;;;;;;;;;;5043243;28;20040;-77
2023/05/10 13:19:24;;;;;;;7.43;6.68;;;;;;;;;;5057990;28;20043;-76
2023/05/10 13:21:50;;;;;;;10.02;7.82;;;;;;;;;;5059985;28;20055;-76
2023/05/10 13:24:17;;;;;;;7.82;7.03;;;;;;;;;;5045611;28;20570;-76
2023/05/10 13:26:43;;;;;;;8.02;6.82;;;;;;;;;;5042849;28;20048;-77
2023/05/10 13:29:10;;;;;;;10.48;7.20;;;;;;;;;;5077053;28;20079;-76
2023/05/10 13:31:36;;;;;;;8.50;5.95;;;;;;;;;;5042304;28;20542;-76
2023/05/10 13:34:02;;;;;;;6.32;5.72;;;;;;;;;;5059037;28;20459;-76
2023/05/10 13:36:29;;;;;;;6.50;5.90;;;;;;;;;;5059843;28;20042;-76
2023/05/10 13:38:55;;;;;;;9.38;6.43;;;;;;;;;;5026592;28;20484;-76
2023/05/10 13:41:21;;;;;;;7.50;6.00;;;;;;;;;;5059068;28;20048;-77
2023/05/10 13:43:48;;;;;;;7.57;6.80;;;;;;;;;;5060097;28;20040;-77
2023/05/10 13:46:14;;;;;;;6.30;5.63;;;;;;;;;;5041510;28;20048;-77
2023/05/10 13:48:41;;;;;;;6.97;6.25;;;;;;;;;;5057415;28;20044;-77
2023/05/10 13:51:07;;;;;;;8.85;6.25;;;;;;;;;;5057710;28;20040;-77
2023/05/10 13:53:33;;;;;;;6.72;6.03;;;;;;;;;;5059653;28;20626;-76
2023/05/10 13:55:59;;;;;;;7.70;6.63;;;;;;;;;;5043511;28;20054;-77
2023/05/10 13:58:25;;;;;;;7.63;6.82;;;;;;;;;;5044237;28;20047;-78
2023/05/10 14:00:51;;;;;;;6.43;5.82;;;;;;;;;;5027298;28;20417;-77
2023/05/10 14:03:17;;;;;;;6.15;5.47;;;;;;;;;;5032461;28;20121;-77
2023/05/10 14:05:45;;;;;;;6.15;5.55;;;;;;;;;;5058520;28;20043;-77
2023/05/10 14:08:12;;;;;;;7.03;5.63;;;;;;;;;;5057143;28;20056;-78
2023/05/10 14:10:39;;;;;;;6.22;5.63;;;;;;;;;;5043499;28;20050;-76
2023/05/10 14:13:06;;;;;;;6.03;5.50;;;;;;;;;;5058744;28;20154;-76
2023/05/10 14:15:32;;;;;;;8.18;6.32;;;;;;;;;;5058876;28;20044;-77
2023/05/10 14:17:58;;;;;;;7.55;6.70;;;;;;;;;;5069775;28;20258;-76
2023/05/10 14:20:24;;;;;;;7.93;6.97;;;;;;;;;;5055614;28;20174;-76
2023/05/10 14:22:50;;;;;;;8.32;7.00;;;;;;;;;;5058619;28;20044;-77
2023/05/10 14:25:16;;;;;;;7.88;7.07;;;;;;;;;;5055079;28;20419;-75
2023/05/10 14:27:42;;;;;;;9.80;7.72;;;;;;;;;;5059257;28;20116;-74
2023/05/10 14:30:09;;;;;;;7.72;6.53;;;;;;;;;;5035086;28;20059;-75
2023/05/10 14:32:36;;;;;;;7.82;7.03;;;;;;;;;;5056539;28;20044;-76
2023/05/10 14:35:02;;;;;;;9.50;8.15;;;;;;;;;;5056463;28;20126;-77